Time;durP1;ratioP1;P1;durP2;ratioP2;P2;SDS_P1;SDS_P2;PMS_P1;PMS_P2;Temp;Humidity;BMP_temperature;BMP_pressure;BME280_temperature;BME280_humidity;BME280_pressure;Samples;Min_cycle;Max_cycle;Signal;HPM_P1;HPM_P2
2022/08/15 00:00:57;;;;;;;7.73;7.03;;;;;;;;;;5059820;28;20190;-69
2022/08/15 00:03:29;;;;;;;7.50;6.90;;;;;;;;;;5069020;28;20191;-69
2022/08/15 00:06:22;;;;;;;7.97;7.23;;;;;;;;;;5065971;28;20226;-69
2022/08/15 00:09:12;;;;;;;7.47;6.77;;;;;;;;;;5048600;28;20210;-68
2022/08/15 00:11:44;;;;;;;7.73;6.93;;;;;;;;;;5055622;28;20216;-69
2022/08/15 00:14:19;;;;;;;7.13;6.60;;;;;;;;;;5067477;28;20185;-69
2022/08/15 00:17:09;;;;;;;7.40;6.70;;;;;;;;;;5051308;28;20194;-69
2022/08/15 00:19:40;;;;;;;8.93;7.20;;;;;;;;;;5043689;28;20186;-69
2022/08/15 00:22:18;;;;;;;8.00;7.20;;;;;;;;;;5069448;28;20186;-69
2022/08/15 00:24:54;;;;;;;7.87;7.07;;;;;;;;;;5067121;28;20237;-69
2022/08/15 00:27:26;;;;;;;8.67;7.00;;;;;;;;;;5054051;28;20828;-69
2022/08/15 00:30:02;;;;;;;7.87;7.17;;;;;;;;;;5063083;28;20184;-68
2022/08/15 00:32:36;;;;;;;8.33;6.63;;;;;;;;;;5064066;28;20686;-69
2022/08/15 00:35:39;;;;;;;7.87;7.07;;;;;;;;;;5060686;28;20238;-69
2022/08/15 00:38:38;;;;;;;7.67;6.97;;;;;;;;;;5060987;28;20271;-69
2022/08/15 00:44:03;;;;;;;7.40;6.77;;;;;;;;;;5056164;28;20210;-69
2022/08/15 00:46:34;;;;;;;7.67;6.97;;;;;;;;;;5065350;28;20539;-69
2022/08/15 00:49:08;;;;;;;9.57;6.90;;;;;;;;;;5048761;28;20198;-70
2022/08/15 00:51:42;;;;;;;7.90;7.17;;;;;;;;;;5058158;28;20202;-69
2022/08/15 00:54:40;;;;;;;7.77;7.17;;;;;;;;;;5068177;28;20244;-69
2022/08/15 00:57:34;;;;;;;7.40;6.80;;;;;;;;;;5056244;28;20222;-69
2022/08/15 01:00:27;;;;;;;7.47;6.87;;;;;;;;;;5052768;28;20183;-69
2022/08/15 01:03:13;;;;;;;7.47;6.87;;;;;;;;;;5039476;28;20206;-68
2022/08/15 01:05:53;;;;;;;8.30;7.50;;;;;;;;;;5049448;28;20678;-69
2022/08/15 01:08:23;;;;;;;7.90;7.20;;;;;;;;;;5062994;28;20213;-69
2022/08/15 01:11:20;;;;;;;8.00;7.20;;;;;;;;;;5055716;28;20218;-69
2022/08/15 01:13:50;;;;;;;7.87;7.00;;;;;;;;;;5061579;28;20204;-69
2022/08/15 01:16:32;;;;;;;8.00;7.20;;;;;;;;;;5066441;28;20244;-68
2022/08/15 01:19:32;;;;;;;8.50;7.70;;;;;;;;;;5056514;28;20252;-68
2022/08/15 01:22:07;;;;;;;8.03;7.23;;;;;;;;;;5059032;28;20232;-69
2022/08/15 01:24:50;;;;;;;7.87;7.27;;;;;;;;;;5053874;28;20197;-69
2022/08/15 01:27:44;;;;;;;7.90;7.30;;;;;;;;;;5051428;28;20232;-69
2022/08/15 01:30:33;;;;;;;7.93;7.23;;;;;;;;;;5059129;28;20352;-69
2022/08/15 01:33:24;;;;;;;7.70;7.00;;;;;;;;;;5060289;28;20247;-69
2022/08/15 01:36:08;;;;;;;7.77;7.17;;;;;;;;;;5063034;28;20205;-69
2022/08/15 01:39:10;;;;;;;8.00;7.20;;;;;;;;;;5055049;28;20190;-69
2022/08/15 01:41:57;;;;;;;8.57;7.70;;;;;;;;;;5056519;28;20278;-68
2022/08/15 01:44:39;;;;;;;7.67;7.00;;;;;;;;;;5057182;28;20209;-69
2022/08/15 01:47:42;;;;;;;8.50;7.70;;;;;;;;;;5051036;28;20200;-69
2022/08/15 01:50:16;;;;;;;7.47;6.87;;;;;;;;;;5066927;28;20203;-69
2022/08/15 01:53:05;;;;;;;7.90;7.20;;;;;;;;;;5062298;28;20605;-68
2022/08/15 01:56:03;;;;;;;7.77;7.07;;;;;;;;;;5059736;28;20759;-69
2022/08/15 01:58:55;;;;;;;7.90;7.10;;;;;;;;;;5056464;28;20697;-69
2022/08/15 02:01:45;;;;;;;7.60;6.90;;;;;;;;;;5060806;28;20224;-68
2022/08/15 02:04:26;;;;;;;7.30;6.60;;;;;;;;;;5047697;28;20193;-68
2022/08/15 02:07:06;;;;;;;7.27;6.57;;;;;;;;;;5067130;28;20638;-68
2022/08/15 02:09:47;;;;;;;7.13;6.40;;;;;;;;;;5055230;28;20202;-68
2022/08/15 02:12:24;;;;;;;6.73;6.13;;;;;;;;;;5052648;28;20244;-68
2022/08/15 02:15:23;;;;;;;6.57;5.90;;;;;;;;;;5065775;28;20190;-68
2022/08/15 02:17:54;;;;;;;6.33;5.83;;;;;;;;;;5063506;28;20208;-68
2022/08/15 02:20:25;;;;;;;7.07;6.37;;;;;;;;;;5056442;28;20688;-69
2022/08/15 02:23:00;;;;;;;6.40;5.90;;;;;;;;;;5065187;28;20243;-69
2022/08/15 02:25:33;;;;;;;7.50;5.60;;;;;;;;;;5052530;28;20629;-68
2022/08/15 02:28:05;;;;;;;5.97;5.47;;;;;;;;;;5060884;28;20765;-69
2022/08/15 02:30:58;;;;;;;5.40;4.90;;;;;;;;;;5061969;28;20193;-69
2022/08/15 02:33:30;;;;;;;6.90;5.37;;;;;;;;;;5045894;28;20301;-68
2022/08/15 02:36:04;;;;;;;5.10;4.70;;;;;;;;;;5058527;28;20214;-68
2022/08/15 02:38:42;;;;;;;6.57;4.93;;;;;;;;;;5045199;28;20198;-68
2022/08/15 02:41:18;;;;;;;5.57;5.00;;;;;;;;;;5060742;28;20190;-69
2022/08/15 02:43:52;;;;;;;6.07;4.97;;;;;;;;;;5060147;28;20178;-68
2022/08/15 02:46:30;;;;;;;5.10;4.60;;;;;;;;;;5061959;28;20531;-67
2022/08/15 02:49:12;;;;;;;5.00;4.47;;;;;;;;;;5062451;28;20642;-68
2022/08/15 02:51:40;;;;;;;4.57;4.27;;;;;;;;;;5061378;28;20208;-69
2022/08/15 02:54:26;;;;;;;4.50;4.10;;;;;;;;;;5061177;28;20280;-69
2022/08/15 02:57:17;;;;;;;6.47;4.40;;;;;;;;;;5047274;28;20671;-68
2022/08/15 02:59:48;;;;;;;4.07;3.73;;;;;;;;;;5073056;28;20201;-69
2022/08/15 03:02:20;;;;;;;4.40;4.00;;;;;;;;;;5065134;28;20798;-69
2022/08/15 03:05:00;;;;;;;4.47;4.07;;;;;;;;;;5065757;28;20201;-69
2022/08/15 03:07:28;;;;;;;4.63;3.77;;;;;;;;;;5047368;28;20197;-68
2022/08/15 03:09:59;;;;;;;4.27;3.90;;;;;;;;;;5058278;28;20198;-69
2022/08/15 03:12:34;;;;;;;3.90;3.60;;;;;;;;;;5068592;28;20185;-69
2022/08/15 03:15:10;;;;;;;4.10;3.73;;;;;;;;;;5056745;28;20203;-69
2022/08/15 03:17:39;;;;;;;4.00;3.70;;;;;;;;;;5068607;28;20506;-68
2022/08/15 03:20:11;;;;;;;4.23;3.83;;;;;;;;;;5044397;28;20774;-68
2022/08/15 03:22:45;;;;;;;4.40;3.90;;;;;;;;;;5048498;28;20198;-69
2022/08/15 03:25:17;;;;;;;4.27;3.70;;;;;;;;;;5061779;28;20656;-68
2022/08/15 03:27:57;;;;;;;3.70;3.40;;;;;;;;;;5053112;28;20208;-68
2022/08/15 03:30:25;;;;;;;3.67;3.33;;;;;;;;;;5041643;28;20816;-69
2022/08/15 03:32:58;;;;;;;4.70;3.57;;;;;;;;;;5064855;28;20223;-69
2022/08/15 03:35:35;;;;;;;3.77;3.43;;;;;;;;;;5049536;28;20204;-69
2022/08/15 03:38:07;;;;;;;3.90;3.23;;;;;;;;;;5062580;28;20203;-69
2022/08/15 03:40:42;;;;;;;8.07;3.43;;;;;;;;;;5056983;28;20200;-69
2022/08/15 03:43:14;;;;;;;3.53;3.23;;;;;;;;;;5045408;28;20194;-69
2022/08/15 03:45:48;;;;;;;3.50;2.90;;;;;;;;;;5062733;28;20665;-69
2022/08/15 03:48:21;;;;;;;3.43;3.17;;;;;;;;;;5055290;28;20198;-69
2022/08/15 03:50:57;;;;;;;3.80;3.40;;;;;;;;;;5056768;28;20188;-69
2022/08/15 03:53:30;;;;;;;3.50;3.20;;;;;;;;;;5052329;28;20233;-69
2022/08/15 03:56:01;;;;;;;3.27;3.03;;;;;;;;;;5063039;28;20244;-69
2022/08/15 03:58:36;;;;;;;3.80;3.40;;;;;;;;;;5044791;28;20309;-69
2022/08/15 04:01:08;;;;;;;3.30;3.00;;;;;;;;;;5071707;28;20202;-69
2022/08/15 04:03:43;;;;;;;6.00;3.07;;;;;;;;;;5046578;28;20193;-69
2022/08/15 04:06:19;;;;;;;3.90;3.20;;;;;;;;;;5062836;28;20251;-69
2022/08/15 04:08:59;;;;;;;3.80;2.90;;;;;;;;;;5061557;28;20312;-69
2022/08/15 04:11:41;;;;;;;5.53;3.40;;;;;;;;;;5074052;28;20246;-69
2022/08/15 04:14:12;;;;;;;3.73;2.90;;;;;;;;;;5051628;28;20220;-69
2022/08/15 04:16:59;;;;;;;3.20;2.90;;;;;;;;;;5050484;28;20229;-69
2022/08/15 04:19:45;;;;;;;3.43;3.00;;;;;;;;;;5048955;28;20189;-69
2022/08/15 04:22:18;;;;;;;3.67;2.80;;;;;;;;;;5062882;28;20558;-69
2022/08/15 04:25:16;;;;;;;4.87;2.70;;;;;;;;;;5065758;28;20700;-69
2022/08/15 04:27:53;;;;;;;3.70;3.00;;;;;;;;;;5057769;28;20193;-69
2022/08/15 04:30:25;;;;;;;3.87;3.00;;;;;;;;;;5061994;28;20251;-69
2022/08/15 04:32:56;;;;;;;5.37;3.30;;;;;;;;;;5051954;28;20230;-69
2022/08/15 04:35:56;;;;;;;4.10;3.03;;;;;;;;;;5058776;28;20217;-69
2022/08/15 04:38:33;;;;;;;3.37;3.03;;;;;;;;;;5055332;28;20189;-69
2022/08/15 04:41:12;;;;;;;4.00;3.23;;;;;;;;;;5053780;28;20193;-69
2022/08/15 04:44:07;;;;;;;4.13;3.00;;;;;;;;;;5051897;28;20408;-69
2022/08/15 04:46:47;;;;;;;4.23;3.20;;;;;;;;;;5065612;28;20228;-69
2022/08/15 04:49:18;;;;;;;3.60;2.80;;;;;;;;;;5051763;28;20243;-69
2022/08/15 04:51:49;;;;;;;4.20;2.97;;;;;;;;;;5063215;28;20225;-69
2022/08/15 04:54:18;;;;;;;3.13;2.83;;;;;;;;;;5066011;28;20328;-69
2022/08/15 04:56:48;;;;;;;3.30;3.00;;;;;;;;;;5063519;28;20249;-69
2022/08/15 04:59:22;;;;;;;3.40;3.10;;;;;;;;;;5079717;28;20212;-69
2022/08/15 05:02:14;;;;;;;3.20;2.90;;;;;;;;;;5068907;28;20258;-69
2022/08/15 05:05:07;;;;;;;3.97;3.00;;;;;;;;;;5068792;28;20204;-69
2022/08/15 05:07:36;;;;;;;5.17;3.23;;;;;;;;;;5048475;28;20201;-69
2022/08/15 05:10:11;;;;;;;3.33;3.03;;;;;;;;;;5059349;28;20246;-68
2022/08/15 05:12:46;;;;;;;3.53;2.93;;;;;;;;;;5064987;28;20269;-68
2022/08/15 05:15:23;;;;;;;5.37;3.50;;;;;;;;;;5068001;28;20571;-68
2022/08/15 05:17:58;;;;;;;47.00;16.53;;;;;;;;;;5050166;28;20267;-68
2022/08/15 05:20:31;;;;;;;102.13;31.80;;;;;;;;;;5061546;28;20279;-68
2022/08/15 05:23:04;;;;;;;51.20;17.80;;;;;;;;;;5058704;28;20186;-68
2022/08/15 05:25:38;;;;;;;44.50;14.63;;;;;;;;;;5041404;28;20232;-68
2022/08/15 05:28:09;;;;;;;39.30;13.77;;;;;;;;;;5050350;28;20196;-68
2022/08/15 05:30:58;;;;;;;35.37;12.93;;;;;;;;;;5051516;28;20225;-68
2022/08/15 05:33:43;;;;;;;26.57;11.93;;;;;;;;;;5043153;28;20561;-68
2022/08/15 05:36:25;;;;;;;22.80;10.13;;;;;;;;;;5051333;28;20578;-68
2022/08/15 05:39:08;;;;;;;20.37;9.40;;;;;;;;;;5043393;28;20705;-69
2022/08/15 05:41:56;;;;;;;16.13;7.63;;;;;;;;;;5063754;28;20270;-68
2022/08/15 05:44:58;;;;;;;12.93;6.53;;;;;;;;;;5056645;28;20214;-68
2022/08/15 05:47:43;;;;;;;11.43;5.57;;;;;;;;;;5044670;28;20714;-68
2022/08/15 05:50:34;;;;;;;9.27;4.77;;;;;;;;;;5058163;28;20220;-68
2022/08/15 05:53:13;;;;;;;11.20;4.80;;;;;;;;;;5045454;28;20682;-68
2022/08/15 05:56:02;;;;;;;12.07;4.33;;;;;;;;;;5055749;28;20193;-68
2022/08/15 05:58:52;;;;;;;9.13;4.43;;;;;;;;;;5053979;28;20194;-68
2022/08/15 06:01:35;;;;;;;7.77;3.93;;;;;;;;;;5054396;28;20193;-68
2022/08/15 06:04:27;;;;;;;6.20;3.63;;;;;;;;;;5056025;28;20223;-68
2022/08/15 06:07:14;;;;;;;6.97;4.13;;;;;;;;;;5058127;28;20229;-68
2022/08/15 06:09:59;;;;;;;6.57;3.67;;;;;;;;;;5058908;28;20420;-68
2022/08/15 06:12:46;;;;;;;7.67;3.93;;;;;;;;;;5060419;28;20840;-68
2022/08/15 06:15:28;;;;;;;4.60;3.00;;;;;;;;;;5049232;28;20213;-68
2022/08/15 06:18:07;;;;;;;5.00;3.20;;;;;;;;;;5064673;28;20210;-68
2022/08/15 06:20:57;;;;;;;4.87;3.23;;;;;;;;;;5032621;28;20221;-68
2022/08/15 06:23:35;;;;;;;5.27;2.90;;;;;;;;;;5047911;28;20277;-68
2022/08/15 06:26:13;;;;;;;8.60;3.17;;;;;;;;;;5059423;28;20201;-68
2022/08/15 06:29:01;;;;;;;3.83;2.80;;;;;;;;;;5053828;28;20196;-68
2022/08/15 06:32:11;;;;;;;5.10;3.00;;;;;;;;;;5028062;28;20204;-68
2022/08/15 06:35:26;;;;;;;3.97;3.00;;;;;;;;;;5053073;28;20198;-68
2022/08/15 06:38:21;;;;;;;4.20;3.13;;;;;;;;;;5050029;28;20619;-68
2022/08/15 06:41:24;;;;;;;2.87;2.67;;;;;;;;;;5052275;28;20186;-68
2022/08/15 06:43:53;;;;;;;4.53;2.57;;;;;;;;;;5040861;28;20197;-68
2022/08/15 06:46:33;;;;;;;4.20;2.87;;;;;;;;;;5035126;28;20669;-68
2022/08/15 06:49:19;;;;;;;4.40;2.83;;;;;;;;;;5053711;28;20209;-68
2022/08/15 06:51:52;;;;;;;4.57;2.60;;;;;;;;;;5039945;28;20689;-68
2022/08/15 06:54:29;;;;;;;3.23;2.80;;;;;;;;;;5044008;28;20246;-68
2022/08/15 06:57:18;;;;;;;5.60;2.77;;;;;;;;;;5041533;28;20230;-68
2022/08/15 07:00:03;;;;;;;3.40;2.70;;;;;;;;;;5053519;28;20198;-68
2022/08/15 07:02:43;;;;;;;2.93;2.60;;;;;;;;;;5044771;28;20616;-69
2022/08/15 07:05:34;;;;;;;3.30;2.70;;;;;;;;;;5041233;28;20198;-68
2022/08/15 07:08:28;;;;;;;3.47;2.80;;;;;;;;;;5046518;28;20685;-68
2022/08/15 07:11:16;;;;;;;3.87;3.00;;;;;;;;;;5045861;28;20475;-67
2022/08/15 07:14:07;;;;;;;3.80;2.83;;;;;;;;;;5047418;28;20195;-68
2022/08/15 07:17:04;;;;;;;8.70;2.77;;;;;;;;;;5050669;28;20202;-67
2022/08/15 07:19:36;;;;;;;3.03;2.70;;;;;;;;;;5049783;28;20194;-68
2022/08/15 07:22:11;;;;;;;5.03;2.67;;;;;;;;;;5049572;28;20386;-68
2022/08/15 07:25:03;;;;;;;5.47;2.90;;;;;;;;;;5050494;28;20197;-67
2022/08/15 07:27:36;;;;;;;3.30;2.80;;;;;;;;;;5049970;28;20867;-68
2022/08/15 07:30:20;;;;;;;5.80;2.70;;;;;;;;;;5042491;28;20294;-68
2022/08/15 07:32:58;;;;;;;4.33;2.97;;;;;;;;;;5024238;28;20210;-67
2022/08/15 07:35:33;;;;;;;3.80;2.90;;;;;;;;;;5050126;28;20202;-68
2022/08/15 07:38:07;;;;;;;7.47;2.80;;;;;;;;;;5049657;28;20238;-67
2022/08/15 07:41:12;;;;;;;4.07;2.77;;;;;;;;;;5039660;28;20220;-68
2022/08/15 07:44:01;;;;;;;3.93;2.80;;;;;;;;;;5038801;28;20209;-66
2022/08/15 07:47:09;;;;;;;6.10;3.27;;;;;;;;;;5047925;28;20633;-66
2022/08/15 07:49:59;;;;;;;4.70;2.80;;;;;;;;;;5044948;28;20862;-67
2022/08/15 07:52:32;;;;;;;4.70;3.13;;;;;;;;;;5051218;28;20201;-67
2022/08/15 07:55:19;;;;;;;3.40;2.83;;;;;;;;;;5036348;28;20229;-66
2022/08/15 07:58:20;;;;;;;4.07;3.20;;;;;;;;;;5061576;28;20746;-67
2022/08/15 08:01:19;;;;;;;4.43;3.17;;;;;;;;;;5032854;28;20191;-66
2022/08/15 08:04:10;;;;;;;4.00;3.00;;;;;;;;;;5046199;28;20529;-68
2022/08/15 08:07:25;;;;;;;5.87;3.07;;;;;;;;;;5047554;28;20562;-68
2022/08/15 08:10:23;;;;;;;3.80;3.40;;;;;;;;;;5048304;28;20278;-68
2022/08/15 08:12:58;;;;;;;3.97;3.13;;;;;;;;;;5050379;28;20195;-68
2022/08/15 08:15:44;;;;;;;5.67;3.13;;;;;;;;;;5042079;28;20208;-68
2022/08/15 08:18:38;;;;;;;3.40;3.10;;;;;;;;;;5045700;28;20249;-68
2022/08/15 08:21:16;;;;;;;4.20;2.93;;;;;;;;;;5046781;28;20211;-68
2022/08/15 08:24:01;;;;;;;3.60;2.90;;;;;;;;;;5062023;28;20183;-67
2022/08/15 08:26:58;;;;;;;5.10;3.10;;;;;;;;;;5044346;28;20202;-65
2022/08/15 08:29:39;;;;;;;8.43;3.50;;;;;;;;;;5049148;28;20199;-63
2022/08/15 08:32:26;;;;;;;8.87;4.37;;;;;;;;;;5044472;28;20220;-63
2022/08/15 08:35:05;;;;;;;10.60;5.03;;;;;;;;;;5031988;28;20194;-62
2022/08/15 08:37:55;;;;;;;6.00;4.07;;;;;;;;;;5045045;28;20719;-62
2022/08/15 08:43:31;;;;;;;5.33;3.67;;;;;;;;;;5047398;28;20198;-63
2022/08/15 08:46:06;;;;;;;6.80;3.90;;;;;;;;;;5026650;28;20194;-63
2022/08/15 08:48:38;;;;;;;5.33;3.80;;;;;;;;;;5063576;28;20198;-63
2022/08/15 08:51:31;;;;;;;5.60;3.90;;;;;;;;;;5029632;28;20198;-62
2022/08/15 08:54:06;;;;;;;5.23;4.07;;;;;;;;;;5052859;28;20241;-62
2022/08/15 08:57:00;;;;;;;6.53;3.70;;;;;;;;;;5063026;28;20216;-64
2022/08/15 08:59:49;;;;;;;6.50;3.80;;;;;;;;;;5048716;28;20205;-64
2022/08/15 09:02:19;;;;;;;6.37;4.00;;;;;;;;;;5061647;28;20182;-63
2022/08/15 09:05:04;;;;;;;6.73;3.87;;;;;;;;;;5045995;28;20208;-62
2022/08/15 09:07:40;;;;;;;6.33;3.87;;;;;;;;;;5056678;28;20216;-63
2022/08/15 09:10:19;;;;;;;5.03;3.77;;;;;;;;;;5055161;28;20288;-64
2022/08/15 09:15:50;;;;;;;6.67;4.00;;;;;;;;;;5061582;28;20213;-64
2022/08/15 09:18:34;;;;;;;5.00;4.20;;;;;;;;;;5048247;28;20214;-65
2022/08/15 09:21:20;;;;;;;7.07;4.10;;;;;;;;;;5060717;28;20191;-64
2022/08/15 09:24:05;;;;;;;6.47;3.73;;;;;;;;;;5062463;28;20718;-64
2022/08/15 09:27:21;;;;;;;5.87;4.07;;;;;;;;;;5064806;28;20197;-63
2022/08/15 09:29:55;;;;;;;3.87;3.40;;;;;;;;;;5041662;28;20223;-63
2022/08/15 09:32:31;;;;;;;4.47;4.07;;;;;;;;;;5059556;28;20210;-63
2022/08/15 09:35:20;;;;;;;6.97;3.83;;;;;;;;;;5063610;28;20270;-63
2022/08/15 09:37:55;;;;;;;4.00;3.70;;;;;;;;;;5060029;28;20278;-64
2022/08/15 09:40:40;;;;;;;3.90;3.60;;;;;;;;;;5063356;28;20189;-63
2022/08/15 09:43:39;;;;;;;5.57;3.60;;;;;;;;;;5062278;28;20280;-63
2022/08/15 09:46:45;;;;;;;4.63;3.60;;;;;;;;;;5058003;28;20221;-63
2022/08/15 09:49:40;;;;;;;5.10;3.40;;;;;;;;;;5063718;28;20181;-64
2022/08/15 09:52:17;;;;;;;5.27;3.57;;;;;;;;;;5057051;28;20209;-63
2022/08/15 09:55:23;;;;;;;3.40;3.10;;;;;;;;;;5062592;28;20313;-64
2022/08/15 09:58:13;;;;;;;4.03;3.70;;;;;;;;;;5039045;28;20649;-63
2022/08/15 10:01:05;;;;;;;4.57;3.83;;;;;;;;;;5062706;28;20776;-63
2022/08/15 10:03:53;;;;;;;3.43;3.23;;;;;;;;;;5062438;28;20669;-63
2022/08/15 10:06:31;;;;;;;4.83;3.53;;;;;;;;;;5041322;28;20194;-63
2022/08/15 10:09:18;;;;;;;3.90;3.50;;;;;;;;;;5049426;28;20213;-63
2022/08/15 10:11:57;;;;;;;3.73;3.10;;;;;;;;;;5044669;28;20190;-63
2022/08/15 10:14:49;;;;;;;4.20;3.30;;;;;;;;;;5056967;28;20210;-63
2022/08/15 10:17:30;;;;;;;4.40;3.50;;;;;;;;;;5070626;28;20252;-62
2022/08/15 10:20:18;;;;;;;3.80;3.50;;;;;;;;;;5053340;28;20667;-63
2022/08/15 10:22:59;;;;;;;4.63;3.50;;;;;;;;;;5049138;28;20616;-63
2022/08/15 10:25:36;;;;;;;3.40;3.10;;;;;;;;;;5057896;28;20201;-63
2022/08/15 10:28:23;;;;;;;4.43;3.13;;;;;;;;;;5061010;28;20185;-63
2022/08/15 10:31:07;;;;;;;3.23;2.90;;;;;;;;;;5056389;28;20634;-63
2022/08/15 10:33:47;;;;;;;3.67;3.37;;;;;;;;;;5054097;28;20214;-64
2022/08/15 10:36:35;;;;;;;5.40;3.27;;;;;;;;;;5052339;28;20193;-63
2022/08/15 10:39:31;;;;;;;4.27;3.33;;;;;;;;;;5031474;28;20210;-63
2022/08/15 10:42:09;;;;;;;5.37;3.30;;;;;;;;;;5056513;28;20210;-64
2022/08/15 10:45:00;;;;;;;3.40;3.10;;;;;;;;;;5038427;28;20646;-63
2022/08/15 10:47:59;;;;;;;3.93;2.70;;;;;;;;;;5064914;28;20826;-63
2022/08/15 10:50:51;;;;;;;3.50;3.20;;;;;;;;;;4986506;28;20246;-63
2022/08/15 10:53:47;;;;;;;3.30;3.00;;;;;;;;;;4979546;28;20236;-63
2022/08/15 10:56:26;;;;;;;3.20;2.90;;;;;;;;;;4968258;28;20239;-64
2022/08/15 10:59:19;;;;;;;3.23;2.93;;;;;;;;;;4982940;28;20212;-65
2022/08/15 11:01:52;;;;;;;3.40;3.10;;;;;;;;;;5013505;28;20218;-63
2022/08/15 11:04:36;;;;;;;4.03;3.30;;;;;;;;;;5037469;28;20611;-63
2022/08/15 11:07:35;;;;;;;4.00;3.13;;;;;;;;;;5062926;28;20253;-64
2022/08/15 11:10:09;;;;;;;4.30;3.40;;;;;;;;;;5065962;28;20202;-63
2022/08/15 11:12:54;;;;;;;4.20;3.43;;;;;;;;;;5046642;28;20252;-63
2022/08/15 11:15:58;;;;;;;3.63;3.00;;;;;;;;;;5053975;28;20628;-63
2022/08/15 11:18:53;;;;;;;3.30;3.00;;;;;;;;;;5062039;28;20219;-64
2022/08/15 11:21:37;;;;;;;3.10;2.90;;;;;;;;;;5059124;28;20217;-67
2022/08/15 11:24:28;;;;;;;3.23;2.80;;;;;;;;;;5038895;28;20226;-65
2022/08/15 11:27:26;;;;;;;2.73;2.53;;;;;;;;;;5056908;28;20636;-64
2022/08/15 11:30:06;;;;;;;6.07;3.60;;;;;;;;;;5036000;28;20205;-64
2022/08/15 11:32:52;;;;;;;3.07;2.77;;;;;;;;;;5046976;28;20827;-64
2022/08/15 11:35:29;;;;;;;4.20;2.87;;;;;;;;;;5056221;28;20198;-64
2022/08/15 11:38:06;;;;;;;3.03;2.70;;;;;;;;;;5051158;28;20352;-64
2022/08/15 11:40:55;;;;;;;3.70;3.40;;;;;;;;;;5062826;28;20198;-64
2022/08/15 11:43:25;;;;;;;3.30;2.83;;;;;;;;;;5061455;28;20198;-64
2022/08/15 11:45:56;;;;;;;3.30;3.00;;;;;;;;;;5058197;28;20208;-64
2022/08/15 11:48:31;;;;;;;3.20;2.90;;;;;;;;;;5053998;28;20201;-69
2022/08/15 11:51:30;;;;;;;3.17;2.87;;;;;;;;;;5044624;28;20782;-64
2022/08/15 11:54:09;;;;;;;3.97;2.77;;;;;;;;;;5053186;28;20233;-65
2022/08/15 11:56:53;;;;;;;3.37;3.07;;;;;;;;;;5059671;28;20968;-66
2022/08/15 11:59:37;;;;;;;4.00;2.67;;;;;;;;;;5051113;28;20249;-65
2022/08/15 12:02:29;;;;;;;4.20;2.87;;;;;;;;;;5038795;28;20315;-65
2022/08/15 12:05:17;;;;;;;5.47;3.00;;;;;;;;;;5055396;28;20723;-66
2022/08/15 12:08:09;;;;;;;3.43;3.13;;;;;;;;;;5055844;28;20361;-67
2022/08/15 12:11:22;;;;;;;3.27;2.97;;;;;;;;;;5045019;28;20174;-71
2022/08/15 12:14:24;;;;;;;3.27;2.80;;;;;;;;;;5055019;28;20190;-64
2022/08/15 12:17:01;;;;;;;11.53;3.47;;;;;;;;;;5062324;28;20544;-64
2022/08/15 12:19:48;;;;;;;6.53;3.20;;;;;;;;;;5041549;28;20272;-64
2022/08/15 12:22:50;;;;;;;6.97;3.20;;;;;;;;;;5036457;28;20210;-64
2022/08/15 12:25:32;;;;;;;3.67;2.70;;;;;;;;;;5060231;28;20196;-64
2022/08/15 12:28:15;;;;;;;3.63;3.00;;;;;;;;;;5058362;28;20280;-64
2022/08/15 12:31:11;;;;;;;4.80;2.77;;;;;;;;;;5057027;28;20201;-64
2022/08/15 12:33:49;;;;;;;3.07;2.77;;;;;;;;;;5050012;28;20562;-64
2022/08/15 12:36:27;;;;;;;6.20;2.97;;;;;;;;;;5063689;28;20208;-64
2022/08/15 12:39:19;;;;;;;4.17;2.47;;;;;;;;;;5060710;28;20213;-64
2022/08/15 12:41:53;;;;;;;3.30;3.00;;;;;;;;;;5027370;28;20616;-64
2022/08/15 12:44:48;;;;;;;3.37;3.07;;;;;;;;;;5061711;28;20792;-64
2022/08/15 12:47:17;;;;;;;3.07;2.80;;;;;;;;;;5049422;28;20209;-64
2022/08/15 12:49:59;;;;;;;3.10;2.80;;;;;;;;;;5061953;28;20202;-64
2022/08/15 12:52:33;;;;;;;3.10;2.77;;;;;;;;;;5064995;28;20654;-64
2022/08/15 12:55:04;;;;;;;3.00;2.73;;;;;;;;;;5031990;28;20237;-64
2022/08/15 12:57:38;;;;;;;3.30;2.93;;;;;;;;;;5039408;28;20695;-64
2022/08/15 13:00:22;;;;;;;3.10;2.80;;;;;;;;;;5044666;28;20182;-63
2022/08/15 13:03:21;;;;;;;3.63;3.00;;;;;;;;;;5045195;28;20286;-65
2022/08/15 13:06:12;;;;;;;2.97;2.67;;;;;;;;;;5042501;28;20190;-65
2022/08/15 13:09:07;;;;;;;3.50;2.80;;;;;;;;;;5039426;28;20213;-64
2022/08/15 13:11:56;;;;;;;3.83;2.83;;;;;;;;;;5043158;28;20717;-65
2022/08/15 13:14:28;;;;;;;3.47;2.93;;;;;;;;;;5030575;28;20205;-65
2022/08/15 13:17:01;;;;;;;3.20;2.90;;;;;;;;;;5047027;28;20194;-66
2022/08/15 13:25:33;;;;;;;3.67;3.00;;;;;;;;;;5029544;28;20254;-65
2022/08/15 13:28:03;;;;;;;3.60;2.80;;;;;;;;;;5043604;28;20213;-65
2022/08/15 13:30:37;;;;;;;2.83;2.63;;;;;;;;;;5026992;28;20198;-65
2022/08/15 13:33:28;;;;;;;3.30;3.00;;;;;;;;;;5042395;28;20217;-65
2022/08/15 13:36:01;;;;;;;3.57;2.80;;;;;;;;;;5044927;28;20206;-65
2022/08/15 13:38:55;;;;;;;2.50;2.30;;;;;;;;;;5027887;28;20226;-65
2022/08/15 13:41:27;;;;;;;3.70;3.40;;;;;;;;;;5045114;28;20214;-65
2022/08/15 13:44:17;;;;;;;4.80;2.83;;;;;;;;;;5042569;28;20198;-65
2022/08/15 13:47:01;;;;;;;4.13;2.60;;;;;;;;;;5043645;28;20206;-65
2022/08/15 13:49:44;;;;;;;3.63;3.17;;;;;;;;;;5044341;28;20213;-65
2022/08/15 13:52:18;;;;;;;3.67;3.03;;;;;;;;;;5045887;28;20202;-65
2022/08/15 13:55:11;;;;;;;3.10;2.80;;;;;;;;;;5057649;28;20256;-65
2022/08/15 13:57:55;;;;;;;3.13;2.83;;;;;;;;;;5041029;28;20643;-65
2022/08/15 14:00:49;;;;;;;3.17;2.87;;;;;;;;;;5051633;28;20276;-65
2022/08/15 14:03:34;;;;;;;3.20;2.90;;;;;;;;;;5042498;28;20262;-65
2022/08/15 14:06:06;;;;;;;3.67;3.23;;;;;;;;;;5048045;28;20200;-65
2022/08/15 14:08:45;;;;;;;4.13;2.93;;;;;;;;;;5027839;28;20205;-65
2022/08/15 14:11:45;;;;;;;3.27;2.70;;;;;;;;;;5058304;28;20190;-65
2022/08/15 14:14:28;;;;;;;3.30;3.00;;;;;;;;;;5052758;28;20716;-64
2022/08/15 14:17:08;;;;;;;3.37;3.07;;;;;;;;;;5042272;28;20237;-65
2022/08/15 14:19:40;;;;;;;3.20;2.90;;;;;;;;;;5036083;28;20285;-64
2022/08/15 14:22:31;;;;;;;3.53;3.23;;;;;;;;;;5059706;28;20289;-65
2022/08/15 14:25:14;;;;;;;4.00;3.70;;;;;;;;;;5057256;28;20202;-64
2022/08/15 14:28:06;;;;;;;2.90;2.70;;;;;;;;;;5037508;28;20936;-64
2022/08/15 14:31:00;;;;;;;3.57;3.13;;;;;;;;;;5061410;28;20269;-64
2022/08/15 14:33:48;;;;;;;3.77;3.03;;;;;;;;;;5039315;28;20857;-64
2022/08/15 14:36:44;;;;;;;3.60;3.30;;;;;;;;;;5061557;28;20186;-65
2022/08/15 14:39:18;;;;;;;3.83;3.20;;;;;;;;;;5045642;28;20248;-64
2022/08/15 14:41:51;;;;;;;4.43;2.90;;;;;;;;;;5060568;28;20221;-64
2022/08/15 14:44:25;;;;;;;3.50;3.13;;;;;;;;;;5056818;28;20610;-64
2022/08/15 14:47:18;;;;;;;3.00;2.80;;;;;;;;;;5056006;28;20240;-64
2022/08/15 14:49:55;;;;;;;3.13;2.83;;;;;;;;;;5058892;28;20560;-64
2022/08/15 14:52:46;;;;;;;3.00;2.63;;;;;;;;;;5064921;28;20217;-63
2022/08/15 14:55:19;;;;;;;3.37;2.93;;;;;;;;;;5056977;28;20230;-63
2022/08/15 14:57:55;;;;;;;6.70;3.17;;;;;;;;;;5046771;28;20198;-63
2022/08/15 15:00:31;;;;;;;5.00;3.07;;;;;;;;;;5054435;28;20392;-64
2022/08/15 15:03:03;;;;;;;3.73;2.97;;;;;;;;;;5047213;28;20525;-64
2022/08/15 15:05:33;;;;;;;3.80;2.90;;;;;;;;;;5031576;28;20288;-64
2022/08/15 15:08:27;;;;;;;3.73;2.93;;;;;;;;;;5050018;28;20698;-65
2022/08/15 15:10:57;;;;;;;4.43;2.90;;;;;;;;;;5045676;28;20197;-64
2022/08/15 15:13:27;;;;;;;4.13;3.13;;;;;;;;;;5065081;28;20186;-65
2022/08/15 15:16:03;;;;;;;3.27;2.97;;;;;;;;;;5057795;28;20511;-64
2022/08/15 15:18:57;;;;;;;3.03;2.80;;;;;;;;;;5031520;28;20207;-64
2022/08/15 15:21:32;;;;;;;3.33;3.07;;;;;;;;;;5035087;28;20205;-64
2022/08/15 15:24:06;;;;;;;3.17;2.87;;;;;;;;;;5058322;28;20635;-64
2022/08/15 15:26:42;;;;;;;3.67;3.30;;;;;;;;;;5067756;28;20713;-64
2022/08/15 15:29:28;;;;;;;3.23;2.93;;;;;;;;;;5051704;28;20280;-64
2022/08/15 15:32:15;;;;;;;2.70;2.50;;;;;;;;;;5051931;28;20214;-64
2022/08/15 15:35:01;;;;;;;3.23;2.93;;;;;;;;;;5063857;28;20222;-64
2022/08/15 15:37:35;;;;;;;2.90;2.70;;;;;;;;;;5050035;28;20224;-64
2022/08/15 15:40:11;;;;;;;3.30;2.90;;;;;;;;;;5056859;28;20214;-65
2022/08/15 15:42:54;;;;;;;3.40;2.60;;;;;;;;;;5039370;28;20202;-64
2022/08/15 15:45:27;;;;;;;2.93;2.70;;;;;;;;;;5048764;28;20217;-63
2022/08/15 15:48:01;;;;;;;3.80;3.37;;;;;;;;;;5061594;28;20197;-64
2022/08/15 15:50:31;;;;;;;4.00;3.07;;;;;;;;;;5064867;28;20232;-63
2022/08/15 15:53:29;;;;;;;3.33;3.03;;;;;;;;;;5067151;28;20685;-64
2022/08/15 15:56:01;;;;;;;3.80;3.40;;;;;;;;;;5038089;28;20194;-64
2022/08/15 15:58:54;;;;;;;5.03;4.43;;;;;;;;;;5058431;28;20216;-64
2022/08/15 16:01:29;;;;;;;9.30;7.97;;;;;;;;;;5057324;28;20255;-64
2022/08/15 16:04:26;;;;;;;11.87;8.87;;;;;;;;;;5048749;28;20198;-64
2022/08/15 16:06:57;;;;;;;12.17;9.60;;;;;;;;;;5051066;28;20193;-65
2022/08/15 16:09:33;;;;;;;11.77;8.77;;;;;;;;;;5028256;28;20686;-64
2022/08/15 16:12:21;;;;;;;10.67;8.33;;;;;;;;;;5063028;28;20227;-65
2022/08/15 16:15:29;;;;;;;11.10;7.90;;;;;;;;;;5067866;28;20654;-64
2022/08/15 16:18:23;;;;;;;9.63;7.40;;;;;;;;;;5045553;28;20189;-64
2022/08/15 16:21:15;;;;;;;10.67;6.90;;;;;;;;;;5059165;28;20213;-64
2022/08/15 16:24:05;;;;;;;8.97;6.97;;;;;;;;;;5058735;28;20228;-64
2022/08/15 16:26:50;;;;;;;7.60;6.30;;;;;;;;;;5047428;28;20201;-63
2022/08/15 16:29:38;;;;;;;6.60;5.90;;;;;;;;;;5057803;28;20303;-64